sensor_id;sensor_type;location;lat;lon;timestamp;P1;durP1;ratioP1;P2;durP2;ratioP2
66145;SDS011;52948;60.040;30.320;2023-07-09T00:00:54;5.30;;;3.55;;
66145;SDS011;52948;60.040;30.320;2023-07-09T00:05:56;7.45;;;4.20;;
66145;SDS011;52948;60.040;30.320;2023-07-09T00:10:59;5.47;;;3.30;;
66145;SDS011;52948;60.040;30.320;2023-07-09T00:16:01;4.32;;;3.20;;
66145;SDS011;52948;60.040;30.320;2023-07-09T00:21:11;3.83;;;3.03;;
66145;SDS011;52948;60.040;30.320;2023-07-09T00:26:13;6.28;;;3.13;;
66145;SDS011;52948;60.040;30.320;2023-07-09T00:31:16;4.38;;;3.28;;
66145;SDS011;52948;60.040;30.320;2023-07-09T00:41:27;5.40;;;3.75;;
66145;SDS011;52948;60.040;30.320;2023-07-09T00:51:33;6.60;;;3.40;;
66145;SDS011;52948;60.040;30.320;2023-07-09T00:56:39;5.88;;;3.15;;
66145;SDS011;52948;60.040;30.320;2023-07-09T01:01:44;5.53;;;2.85;;
66145;SDS011;52948;60.040;30.320;2023-07-09T01:06:52;4.22;;;2.95;;
66145;SDS011;52948;60.040;30.320;2023-07-09T01:11:57;4.45;;;3.05;;
66145;SDS011;52948;60.040;30.320;2023-07-09T01:17:04;8.55;;;4.35;;
66145;SDS011;52948;60.040;30.320;2023-07-09T01:22:07;8.07;;;4.13;;
66145;SDS011;52948;60.040;30.320;2023-07-09T01:27:09;4.63;;;3.50;;
66145;SDS011;52948;60.040;30.320;2023-07-09T01:32:13;5.55;;;3.40;;
66145;SDS011;52948;60.040;30.320;2023-07-09T01:37:16;6.22;;;3.10;;
66145;SDS011;52948;60.040;30.320;2023-07-09T01:42:20;4.65;;;2.90;;
66145;SDS011;52948;60.040;30.320;2023-07-09T01:47:24;2.97;;;2.53;;
66145;SDS011;52948;60.040;30.320;2023-07-09T01:52:28;3.67;;;2.75;;
66145;SDS011;52948;60.040;30.320;2023-07-09T01:57:31;6.15;;;3.63;;
66145;SDS011;52948;60.040;30.320;2023-07-09T02:02:37;4.63;;;2.72;;
66145;SDS011;52948;60.040;30.320;2023-07-09T02:07:40;3.22;;;2.92;;
66145;SDS011;52948;60.040;30.320;2023-07-09T02:12:42;4.78;;;3.65;;
66145;SDS011;52948;60.040;30.320;2023-07-09T02:17:45;4.10;;;3.35;;
66145;SDS011;52948;60.040;30.320;2023-07-09T02:22:49;4.30;;;3.22;;
66145;SDS011;52948;60.040;30.320;2023-07-09T02:27:51;5.60;;;3.40;;
66145;SDS011;52948;60.040;30.320;2023-07-09T02:32:54;5.25;;;3.72;;
66145;SDS011;52948;60.040;30.320;2023-07-09T02:37:56;5.15;;;3.72;;
66145;SDS011;52948;60.040;30.320;2023-07-09T02:42:58;6.50;;;2.72;;
66145;SDS011;52948;60.040;30.320;2023-07-09T02:48:00;4.53;;;3.28;;
66145;SDS011;52948;60.040;30.320;2023-07-09T02:53:05;4.32;;;3.15;;
66145;SDS011;52948;60.040;30.320;2023-07-09T02:58:07;5.55;;;3.65;;
66145;SDS011;52948;60.040;30.320;2023-07-09T03:03:09;7.22;;;3.90;;
66145;SDS011;52948;60.040;30.320;2023-07-09T03:08:12;7.60;;;4.30;;
66145;SDS011;52948;60.040;30.320;2023-07-09T03:13:14;6.32;;;3.83;;
66145;SDS011;52948;60.040;30.320;2023-07-09T03:18:16;7.38;;;4.35;;
66145;SDS011;52948;60.040;30.320;2023-07-09T03:23:18;8.18;;;4.43;;
66145;SDS011;52948;60.040;30.320;2023-07-09T03:28:21;7.28;;;4.70;;
66145;SDS011;52948;60.040;30.320;2023-07-09T03:33:24;7.70;;;4.40;;
66145;SDS011;52948;60.040;30.320;2023-07-09T03:38:26;9.35;;;4.22;;
66145;SDS011;52948;60.040;30.320;2023-07-09T03:43:29;6.97;;;3.78;;
66145;SDS011;52948;60.040;30.320;2023-07-09T03:48:31;7.13;;;3.90;;
66145;SDS011;52948;60.040;30.320;2023-07-09T03:53:33;6.53;;;3.30;;
66145;SDS011;52948;60.040;30.320;2023-07-09T03:58:36;4.22;;;3.25;;
66145;SDS011;52948;60.040;30.320;2023-07-09T04:03:38;9.50;;;3.80;;
66145;SDS011;52948;60.040;30.320;2023-07-09T04:08:40;5.03;;;2.80;;
66145;SDS011;52948;60.040;30.320;2023-07-09T04:13:42;2.72;;;2.17;;
66145;SDS011;52948;60.040;30.320;2023-07-09T04:18:45;4.38;;;2.72;;
66145;SDS011;52948;60.040;30.320;2023-07-09T04:23:47;4.53;;;2.22;;
66145;SDS011;52948;60.040;30.320;2023-07-09T04:28:49;5.03;;;2.83;;
66145;SDS011;52948;60.040;30.320;2023-07-09T04:33:51;5.70;;;2.00;;
66145;SDS011;52948;60.040;30.320;2023-07-09T04:38:54;1.70;;;1.50;;
66145;SDS011;52948;60.040;30.320;2023-07-09T04:43:56;4.22;;;2.50;;
66145;SDS011;52948;60.040;30.320;2023-07-09T04:48:58;2.67;;;2.00;;
66145;SDS011;52948;60.040;30.320;2023-07-09T04:54:02;2.72;;;2.17;;
66145;SDS011;52948;60.040;30.320;2023-07-09T04:59:05;2.28;;;1.48;;
66145;SDS011;52948;60.040;30.320;2023-07-09T05:04:07;4.38;;;1.85;;
66145;SDS011;52948;60.040;30.320;2023-07-09T05:09:10;2.47;;;2.22;;
66145;SDS011;52948;60.040;30.320;2023-07-09T05:14:12;2.70;;;1.95;;
66145;SDS011;52948;60.040;30.320;2023-07-09T05:19:14;2.53;;;2.10;;
66145;SDS011;52948;60.040;30.320;2023-07-09T05:24:16;2.40;;;1.80;;
66145;SDS011;52948;60.040;30.320;2023-07-09T05:29:19;2.70;;;2.20;;
66145;SDS011;52948;60.040;30.320;2023-07-09T05:34:21;2.55;;;2.00;;
66145;SDS011;52948;60.040;30.320;2023-07-09T05:39:24;2.72;;;1.83;;
66145;SDS011;52948;60.040;30.320;2023-07-09T05:44:26;1.73;;;1.10;;
66145;SDS011;52948;60.040;30.320;2023-07-09T05:49:28;1.58;;;1.40;;
66145;SDS011;52948;60.040;30.320;2023-07-09T05:54:30;1.85;;;1.00;;
66145;SDS011;52948;60.040;30.320;2023-07-09T05:59:33;3.90;;;2.05;;
66145;SDS011;52948;60.040;30.320;2023-07-09T06:04:35;1.17;;;0.80;;
66145;SDS011;52948;60.040;30.320;2023-07-09T06:09:37;1.52;;;1.38;;
66145;SDS011;52948;60.040;30.320;2023-07-09T06:14:39;1.65;;;1.40;;
66145;SDS011;52948;60.040;30.320;2023-07-09T06:19:42;1.58;;;1.27;;
66145;SDS011;52948;60.040;30.320;2023-07-09T06:24:45;1.15;;;1.05;;
66145;SDS011;52948;60.040;30.320;2023-07-09T06:29:47;1.33;;;1.10;;
66145;SDS011;52948;60.040;30.320;2023-07-09T06:34:49;0.60;;;0.60;;
66145;SDS011;52948;60.040;30.320;2023-07-09T06:39:52;0.60;;;0.60;;
66145;SDS011;52948;60.040;30.320;2023-07-09T06:44:54;2.80;;;1.45;;
66145;SDS011;52948;60.040;30.320;2023-07-09T06:49:56;2.70;;;1.02;;
66145;SDS011;52948;60.040;30.320;2023-07-09T06:54:58;1.70;;;0.40;;
66145;SDS011;52948;60.040;30.320;2023-07-09T07:00:06;0.98;;;0.73;;
66145;SDS011;52948;60.040;30.320;2023-07-09T07:05:09;0.30;;;0.22;;
66145;SDS011;52948;60.040;30.320;2023-07-09T07:10:11;0.43;;;0.40;;
66145;SDS011;52948;60.040;30.320;2023-07-09T07:15:14;1.90;;;0.60;;
66145;SDS011;52948;60.040;30.320;2023-07-09T07:20:18;0.50;;;0.50;;
66145;SDS011;52948;60.040;30.320;2023-07-09T07:25:20;1.45;;;0.70;;
66145;SDS011;52948;60.040;30.320;2023-07-09T07:30:23;0.68;;;0.40;;
66145;SDS011;52948;60.040;30.320;2023-07-09T07:35:25;1.92;;;0.90;;
66145;SDS011;52948;60.040;30.320;2023-07-09T07:40:28;0.75;;;0.52;;
66145;SDS011;52948;60.040;30.320;2023-07-09T07:45:30;0.73;;;0.25;;
66145;SDS011;52948;60.040;30.320;2023-07-09T07:50:32;1.67;;;0.80;;
66145;SDS011;52948;60.040;30.320;2023-07-09T07:55:35;4.72;;;1.02;;
66145;SDS011;52948;60.040;30.320;2023-07-09T08:00:39;1.65;;;0.73;;
66145;SDS011;52948;60.040;30.320;2023-07-09T08:05:42;0.93;;;0.68;;
66145;SDS011;52948;60.040;30.320;2023-07-09T08:10:44;1.00;;;0.77;;
66145;SDS011;52948;60.040;30.320;2023-07-09T08:15:46;3.05;;;1.15;;
66145;SDS011;52948;60.040;30.320;2023-07-09T08:20:48;15.60;;;1.50;;
66145;SDS011;52948;60.040;30.320;2023-07-09T08:25:54;1.33;;;0.95;;
66145;SDS011;52948;60.040;30.320;2023-07-09T08:31:00;1.15;;;0.80;;
66145;SDS011;52948;60.040;30.320;2023-07-09T08:36:02;1.52;;;1.08;;
66145;SDS011;52948;60.040;30.320;2023-07-09T08:46:20;1.38;;;0.77;;
66145;SDS011;52948;60.040;30.320;2023-07-09T08:51:33;1.92;;;1.30;;
66145;SDS011;52948;60.040;30.320;2023-07-09T08:56:38;0.80;;;0.80;;
66145;SDS011;52948;60.040;30.320;2023-07-09T09:01:43;1.35;;;0.52;;
66145;SDS011;52948;60.040;30.320;2023-07-09T09:07:38;1.08;;;0.82;;
66145;SDS011;52948;60.040;30.320;2023-07-09T09:12:24;1.52;;;0.90;;
66145;SDS011;52948;60.040;30.320;2023-07-09T09:17:28;3.65;;;1.13;;
66145;SDS011;52948;60.040;30.320;2023-07-09T09:22:42;2.08;;;1.52;;
66145;SDS011;52948;60.040;30.320;2023-07-09T09:27:45;3.25;;;0.77;;
66145;SDS011;52948;60.040;30.320;2023-07-09T09:32:50;5.60;;;1.42;;
66145;SDS011;52948;60.040;30.320;2023-07-09T09:37:55;2.63;;;1.30;;
66145;SDS011;52948;60.040;30.320;2023-07-09T09:42:59;1.63;;;1.45;;
66145;SDS011;52948;60.040;30.320;2023-07-09T09:48:10;1.63;;;1.25;;
66145;SDS011;52948;60.040;30.320;2023-07-09T09:53:23;1.67;;;1.30;;
66145;SDS011;52948;60.040;30.320;2023-07-09T09:58:29;2.65;;;1.10;;
66145;SDS011;52948;60.040;30.320;2023-07-09T10:03:35;4.80;;;1.00;;
66145;SDS011;52948;60.040;30.320;2023-07-09T10:14:00;1.75;;;1.20;;
66145;SDS011;52948;60.040;30.320;2023-07-09T10:24:50;1.90;;;0.90;;
66145;SDS011;52948;60.040;30.320;2023-07-09T10:35:13;0.90;;;0.90;;
66145;SDS011;52948;60.040;30.320;2023-07-09T10:40:26;0.75;;;0.75;;
66145;SDS011;52948;60.040;30.320;2023-07-09T10:45:39;1.38;;;1.13;;
66145;SDS011;52948;60.040;30.320;2023-07-09T10:50:45;1.08;;;0.80;;
66145;SDS011;52948;60.040;30.320;2023-07-09T10:55:52;2.17;;;0.98;;
66145;SDS011;52948;60.040;30.320;2023-07-09T11:00:57;1.63;;;0.73;;
66145;SDS011;52948;60.040;30.320;2023-07-09T11:05:59;1.17;;;0.80;;
66145;SDS011;52948;60.040;30.320;2023-07-09T11:11:06;0.82;;;0.70;;
66145;SDS011;52948;60.040;30.320;2023-07-09T11:16:14;1.63;;;1.00;;
66145;SDS011;52948;60.040;30.320;2023-07-09T11:21:18;0.73;;;0.68;;
66145;SDS011;52948;60.040;30.320;2023-07-09T11:31:38;1.15;;;0.73;;
66145;SDS011;52948;60.040;30.320;2023-07-09T11:36:57;0.60;;;0.50;;
66145;SDS011;52948;60.040;30.320;2023-07-09T11:42:00;2.10;;;0.88;;
66145;SDS011;52948;60.040;30.320;2023-07-09T11:52:32;4.03;;;0.80;;
66145;SDS011;52948;60.040;30.320;2023-07-09T11:57:38;1.63;;;0.68;;
66145;SDS011;52948;60.040;30.320;2023-07-09T12:02:40;1.45;;;0.70;;
66145;SDS011;52948;60.040;30.320;2023-07-09T12:07:42;0.80;;;0.60;;
66145;SDS011;52948;60.040;30.320;2023-07-09T12:12:45;1.27;;;0.98;;
66145;SDS011;52948;60.040;30.320;2023-07-09T12:18:21;0.85;;;0.68;;
66145;SDS011;52948;60.040;30.320;2023-07-09T12:23:18;0.77;;;0.50;;
66145;SDS011;52948;60.040;30.320;2023-07-09T12:28:24;0.68;;;0.57;;
66145;SDS011;52948;60.040;30.320;2023-07-09T12:33:27;1.17;;;0.50;;
66145;SDS011;52948;60.040;30.320;2023-07-09T12:38:32;2.35;;;0.85;;
66145;SDS011;52948;60.040;30.320;2023-07-09T12:43:43;0.68;;;0.68;;
66145;SDS011;52948;60.040;30.320;2023-07-09T12:48:46;1.58;;;0.88;;
66145;SDS011;52948;60.040;30.320;2023-07-09T13:04:29;2.25;;;0.93;;
66145;SDS011;52948;60.040;30.320;2023-07-09T13:09:34;0.98;;;0.77;;
66145;SDS011;52948;60.040;30.320;2023-07-09T13:14:36;2.22;;;0.80;;
66145;SDS011;52948;60.040;30.320;2023-07-09T13:19:38;2.38;;;0.85;;
66145;SDS011;52948;60.040;30.320;2023-07-09T13:24:41;1.55;;;0.60;;
66145;SDS011;52948;60.040;30.320;2023-07-09T13:29:43;1.30;;;0.75;;
66145;SDS011;52948;60.040;30.320;2023-07-09T13:34:45;0.52;;;0.50;;
66145;SDS011;52948;60.040;30.320;2023-07-09T13:39:47;2.40;;;0.70;;
66145;SDS011;52948;60.040;30.320;2023-07-09T13:44:50;3.72;;;0.63;;
66145;SDS011;52948;60.040;30.320;2023-07-09T13:49:52;0.60;;;0.60;;
66145;SDS011;52948;60.040;30.320;2023-07-09T13:54:55;1.60;;;0.50;;
66145;SDS011;52948;60.040;30.320;2023-07-09T13:59:57;1.55;;;0.65;;
66145;SDS011;52948;60.040;30.320;2023-07-09T14:05:00;1.83;;;0.80;;
66145;SDS011;52948;60.040;30.320;2023-07-09T14:10:04;1.33;;;0.70;;
66145;SDS011;52948;60.040;30.320;2023-07-09T14:15:12;1.25;;;0.88;;
66145;SDS011;52948;60.040;30.320;2023-07-09T14:20:20;1.10;;;0.90;;
66145;SDS011;52948;60.040;30.320;2023-07-09T14:25:24;1.45;;;0.80;;
66145;SDS011;52948;60.040;30.320;2023-07-09T14:30:27;2.22;;;1.08;;
66145;SDS011;52948;60.040;30.320;2023-07-09T14:35:29;2.47;;;0.52;;
66145;SDS011;52948;60.040;30.320;2023-07-09T14:40:31;0.77;;;0.60;;
66145;SDS011;52948;60.040;30.320;2023-07-09T14:45:33;1.30;;;0.80;;
66145;SDS011;52948;60.040;30.320;2023-07-09T14:50:36;1.95;;;0.75;;
66145;SDS011;52948;60.040;30.320;2023-07-09T14:55:38;0.60;;;0.52;;
66145;SDS011;52948;60.040;30.320;2023-07-09T15:00:41;1.00;;;0.60;;
66145;SDS011;52948;60.040;30.320;2023-07-09T15:05:45;1.55;;;0.80;;
66145;SDS011;52948;60.040;30.320;2023-07-09T15:10:48;0.98;;;0.80;;
66145;SDS011;52948;60.040;30.320;2023-07-09T15:15:52;3.33;;;0.52;;
66145;SDS011;52948;60.040;30.320;2023-07-09T15:20:58;0.30;;;0.30;;
66145;SDS011;52948;60.040;30.320;2023-07-09T15:31:03;0.65;;;0.65;;
66145;SDS011;52948;60.040;30.320;2023-07-09T15:36:09;1.63;;;0.50;;
66145;SDS011;52948;60.040;30.320;2023-07-09T15:41:13;1.52;;;0.88;;
66145;SDS011;52948;60.040;30.320;2023-07-09T15:46:19;4.03;;;0.90;;
66145;SDS011;52948;60.040;30.320;2023-07-09T15:51:23;2.08;;;0.57;;
66145;SDS011;52948;60.040;30.320;2023-07-09T15:56:26;1.10;;;0.68;;
66145;SDS011;52948;60.040;30.320;2023-07-09T16:01:31;0.90;;;0.70;;
66145;SDS011;52948;60.040;30.320;2023-07-09T16:06:33;0.20;;;0.20;;
66145;SDS011;52948;60.040;30.320;2023-07-09T16:11:37;1.42;;;0.70;;
66145;SDS011;52948;60.040;30.320;2023-07-09T16:16:40;1.73;;;0.90;;
66145;SDS011;52948;60.040;30.320;2023-07-09T16:21:42;1.27;;;0.60;;
66145;SDS011;52948;60.040;30.320;2023-07-09T16:26:44;2.30;;;0.90;;
66145;SDS011;52948;60.040;30.320;2023-07-09T16:31:47;3.15;;;0.90;;
66145;SDS011;52948;60.040;30.320;2023-07-09T16:36:49;2.08;;;1.00;;
66145;SDS011;52948;60.040;30.320;2023-07-09T16:41:52;0.43;;;0.40;;
66145;SDS011;52948;60.040;30.320;2023-07-09T16:46:55;1.13;;;0.63;;
66145;SDS011;52948;60.040;30.320;2023-07-09T16:51:57;0.88;;;0.80;;
66145;SDS011;52948;60.040;30.320;2023-07-09T16:57:00;0.73;;;0.73;;
66145;SDS011;52948;60.040;30.320;2023-07-09T17:02:08;0.73;;;0.73;;
66145;SDS011;52948;60.040;30.320;2023-07-09T17:07:32;1.35;;;0.60;;
66145;SDS011;52948;60.040;30.320;2023-07-09T17:12:35;1.45;;;0.60;;
66145;SDS011;52948;60.040;30.320;2023-07-09T17:17:37;0.73;;;0.68;;
66145;SDS011;52948;60.040;30.320;2023-07-09T17:22:39;2.15;;;0.70;;
66145;SDS011;52948;60.040;30.320;2023-07-09T17:27:41;1.88;;;0.73;;
66145;SDS011;52948;60.040;30.320;2023-07-09T17:32:44;0.60;;;0.60;;
66145;SDS011;52948;60.040;30.320;2023-07-09T17:37:49;0.98;;;0.60;;
66145;SDS011;52948;60.040;30.320;2023-07-09T17:42:53;0.95;;;0.47;;
66145;SDS011;52948;60.040;30.320;2023-07-09T17:47:57;1.75;;;1.00;;
66145;SDS011;52948;60.040;30.320;2023-07-09T17:52:59;1.10;;;0.90;;
66145;SDS011;52948;60.040;30.320;2023-07-09T17:58:02;2.60;;;0.70;;
66145;SDS011;52948;60.040;30.320;2023-07-09T18:03:10;2.15;;;0.88;;
66145;SDS011;52948;60.040;30.320;2023-07-09T18:08:13;0.52;;;0.52;;
66145;SDS011;52948;60.040;30.320;2023-07-09T18:13:17;1.60;;;0.60;;
66145;SDS011;52948;60.040;30.320;2023-07-09T18:18:24;1.00;;;0.68;;
66145;SDS011;52948;60.040;30.320;2023-07-09T18:23:26;0.60;;;0.55;;
66145;SDS011;52948;60.040;30.320;2023-07-09T18:28:29;1.10;;;0.73;;
66145;SDS011;52948;60.040;30.320;2023-07-09T18:33:33;1.60;;;0.82;;
66145;SDS011;52948;60.040;30.320;2023-07-09T18:38:35;2.28;;;1.20;;
66145;SDS011;52948;60.040;30.320;2023-07-09T18:43:38;2.13;;;1.10;;
66145;SDS011;52948;60.040;30.320;2023-07-09T18:48:41;0.60;;;0.40;;
66145;SDS011;52948;60.040;30.320;2023-07-09T18:53:43;0.50;;;0.50;;
66145;SDS011;52948;60.040;30.320;2023-07-09T18:58:45;1.60;;;0.68;;
66145;SDS011;52948;60.040;30.320;2023-07-09T19:03:48;1.83;;;0.90;;
66145;SDS011;52948;60.040;30.320;2023-07-09T19:08:50;1.30;;;0.90;;
66145;SDS011;52948;60.040;30.320;2023-07-09T19:13:52;1.02;;;0.90;;
66145;SDS011;52948;60.040;30.320;2023-07-09T19:18:55;0.75;;;0.70;;
66145;SDS011;52948;60.040;30.320;2023-07-09T19:23:57;0.70;;;0.70;;
66145;SDS011;52948;60.040;30.320;2023-07-09T19:29:02;2.03;;;1.00;;
66145;SDS011;52948;60.040;30.320;2023-07-09T19:34:08;2.05;;;1.10;;
66145;SDS011;52948;60.040;30.320;2023-07-09T19:39:24;1.80;;;1.33;;
66145;SDS011;52948;60.040;30.320;2023-07-09T19:44:27;1.95;;;1.15;;
66145;SDS011;52948;60.040;30.320;2023-07-09T19:49:29;2.47;;;0.90;;
66145;SDS011;52948;60.040;30.320;2023-07-09T19:54:31;1.45;;;1.10;;
66145;SDS011;52948;60.040;30.320;2023-07-09T19:59:34;2.72;;;1.33;;
66145;SDS011;52948;60.040;30.320;2023-07-09T20:04:36;3.22;;;1.60;;
66145;SDS011;52948;60.040;30.320;2023-07-09T20:09:38;1.45;;;1.20;;
66145;SDS011;52948;60.040;30.320;2023-07-09T20:14:41;2.20;;;1.20;;
66145;SDS011;52948;60.040;30.320;2023-07-09T20:19:43;2.88;;;1.33;;
66145;SDS011;52948;60.040;30.320;2023-07-09T20:24:45;1.30;;;1.00;;
66145;SDS011;52948;60.040;30.320;2023-07-09T20:29:48;1.52;;;1.20;;
66145;SDS011;52948;60.040;30.320;2023-07-09T20:34:53;1.55;;;1.30;;
66145;SDS011;52948;60.040;30.320;2023-07-09T20:39:55;1.52;;;1.10;;
66145;SDS011;52948;60.040;30.320;2023-07-09T20:44:58;1.73;;;1.33;;
66145;SDS011;52948;60.040;30.320;2023-07-09T20:50:00;3.75;;;1.52;;
66145;SDS011;52948;60.040;30.320;2023-07-09T20:55:02;3.58;;;1.70;;
66145;SDS011;52948;60.040;30.320;2023-07-09T21:00:09;2.78;;;1.25;;
66145;SDS011;52948;60.040;30.320;2023-07-09T21:05:14;1.98;;;1.08;;
66145;SDS011;52948;60.040;30.320;2023-07-09T21:10:20;2.97;;;1.52;;
66145;SDS011;52948;60.040;30.320;2023-07-09T21:15:24;1.73;;;1.25;;
66145;SDS011;52948;60.040;30.320;2023-07-09T21:20:27;1.45;;;1.10;;
66145;SDS011;52948;60.040;30.320;2023-07-09T21:25:30;1.30;;;1.13;;
66145;SDS011;52948;60.040;30.320;2023-07-09T21:30:32;1.00;;;0.90;;
66145;SDS011;52948;60.040;30.320;2023-07-09T21:35:34;1.52;;;1.02;;
66145;SDS011;52948;60.040;30.320;2023-07-09T21:40:36;3.35;;;1.20;;
66145;SDS011;52948;60.040;30.320;2023-07-09T21:45:40;1.35;;;1.08;;
66145;SDS011;52948;60.040;30.320;2023-07-09T21:50:43;2.05;;;1.20;;
66145;SDS011;52948;60.040;30.320;2023-07-09T21:55:45;1.30;;;1.20;;
66145;SDS011;52948;60.040;30.320;2023-07-09T22:00:47;1.80;;;1.40;;
66145;SDS011;52948;60.040;30.320;2023-07-09T22:05:49;1.67;;;1.25;;
66145;SDS011;52948;60.040;30.320;2023-07-09T22:10:51;1.65;;;1.30;;
66145;SDS011;52948;60.040;30.320;2023-07-09T22:15:54;1.85;;;1.35;;
66145;SDS011;52948;60.040;30.320;2023-07-09T22:20:56;1.98;;;1.40;;
66145;SDS011;52948;60.040;30.320;2023-07-09T22:25:58;1.95;;;1.33;;
66145;SDS011;52948;60.040;30.320;2023-07-09T22:31:00;1.52;;;1.13;;
66145;SDS011;52948;60.040;30.320;2023-07-09T22:36:04;2.40;;;1.13;;
66145;SDS011;52948;60.040;30.320;2023-07-09T22:41:09;3.75;;;1.17;;
66145;SDS011;52948;60.040;30.320;2023-07-09T22:46:14;1.15;;;1.00;;
66145;SDS011;52948;60.040;30.320;2023-07-09T22:51:17;1.25;;;1.10;;
66145;SDS011;52948;60.040;30.320;2023-07-09T22:56:19;1.63;;;1.10;;
66145;SDS011;52948;60.040;30.320;2023-07-09T23:01:21;3.00;;;1.05;;
66145;SDS011;52948;60.040;30.320;2023-07-09T23:06:25;1.15;;;1.00;;
66145;SDS011;52948;60.040;30.320;2023-07-09T23:11:28;1.92;;;1.30;;
66145;SDS011;52948;60.040;30.320;2023-07-09T23:16:32;1.65;;;1.10;;
66145;SDS011;52948;60.040;30.320;2023-07-09T23:21:34;1.48;;;1.08;;
66145;SDS011;52948;60.040;30.320;2023-07-09T23:26:39;1.60;;;1.00;;
66145;SDS011;52948;60.040;30.320;2023-07-09T23:31:47;1.10;;;0.90;;
66145;SDS011;52948;60.040;30.320;2023-07-09T23:36:50;1.50;;;0.90;;
66145;SDS011;52948;60.040;30.320;2023-07-09T23:41:52;1.40;;;1.20;;
66145;SDS011;52948;60.040;30.320;2023-07-09T23:46:57;1.45;;;0.88;;
66145;SDS011;52948;60.040;30.320;2023-07-09T23:51:59;3.45;;;1.13;;
66145;SDS011;52948;60.040;30.320;2023-07-09T23:57:02;0.88;;;0.88;;
